East White Plains, New York
Current Conditions -  °F | °C
As of 10:56 AM on Wednesday 28 Jan 2015 (Local Time) from KHPN Reporting Station
Few Clouds Few Clouds  
Wind Chill: 10°   Ceiling: Unl
Heat Index: 22°   Visibility: 10mi
Dew Point:   Wind: 12mph
Humidity: 48%   Direction: 320°NW
Pressure: 30.01"   Gusts: NA
Location:  41.0555°N, 73.7433°W
Report Text: KHPN 281556Z 32010KT 10SM FEW100 M06/M15 A3001 RMK AO2 SLP175 T10561150
Loading
Personal Weather Stations






























Interactive Weather Map New forecast layout! Learn more

10-Day Weather Forecast

Advertisements
Track Severe Weather on mobile